QFA55 PAVD-PAJN
Flight info
| Callsign | QFA55 |
|---|---|
| Flight time | N/A |
| Altitude | 35000 |
| Route | JMAAL4 NAKED JOH J501 YAK J541 SSR |
| Aircraft | B738/M-SDE2E3FGHIRWXY/LB1 |
Departure
| Time | 2026-05-07 09:48 |
|---|---|
| Airport | Valdez Pioneer Field (PAVD) |
Arrival
| Time | N/A |
|---|---|
| Airport | Juneau International Airport (PAJN) |
| Time | Latitude | Longitude | Altitude | Speed | Heading |
|---|---|---|---|---|---|
| 2026-05-07 09:36 | 61.13230 | -146.23919 | 83 ft | 0 kts | 244° |
| 2026-05-07 09:43 | 61.13229 | -146.23922 | 84 ft | 1 kts | 244° |
| 2026-05-07 09:43 | 61.13225 | -146.23952 | 84 ft | 4 kts | 262° |
| 2026-05-07 09:43 | 61.13234 | -146.24049 | 84 ft | 8 kts | 282° |
| 2026-05-07 09:44 | 61.13242 | -146.24172 | 84 ft | 9 kts | 273° |
| 2026-05-07 09:44 | 61.13241 | -146.24304 | 84 ft | 9 kts | 274° |
| 2026-05-07 09:44 | 61.13287 | -146.24375 | 84 ft | 9 kts | 350° |
| 2026-05-07 09:44 | 61.13354 | -146.24391 | 84 ft | 10 kts | 355° |
| 2026-05-07 09:45 | 61.13422 | -146.24357 | 84 ft | 11 kts | 59° |
| 2026-05-07 09:45 | 61.13441 | -146.24196 | 84 ft | 13 kts | 84° |
| 2026-05-07 09:45 | 61.13460 | -146.23984 | 84 ft | 17 kts | 81° |
| 2026-05-07 09:45 | 61.13480 | -146.23715 | 84 ft | 21 kts | 83° |
| 2026-05-07 09:46 | 61.13503 | -146.23395 | 84 ft | 23 kts | 81° |
| 2026-05-07 09:46 | 61.13523 | -146.23093 | 84 ft | 21 kts | 84° |
| 2026-05-07 09:46 | 61.13536 | -146.22791 | 84 ft | 16 kts | 86° |
| 2026-05-07 09:46 | 61.13549 | -146.22686 | 84 ft | 4 kts | 343° |
| 2026-05-07 09:47 | 61.13552 | -146.22739 | 84 ft | 10 kts | 261° |
| 2026-05-07 09:47 | 61.13507 | -146.23361 | 84 ft | 80 kts | 261° |
| 2026-05-07 09:47 | 61.13388 | -146.24965 | 84 ft | 143 kts | 261° |
| 2026-05-07 09:47 | 61.13226 | -146.27153 | 494 ft | 156 kts | 261° |
| 2026-05-07 09:48 | 61.12950 | -146.29391 | 1104 ft | 163 kts | 256° |
| 2026-05-07 09:48 | 61.12680 | -146.31787 | 1589 ft | 186 kts | 259° |
| 2026-05-07 09:48 | 61.12409 | -146.34642 | 1910 ft | 219 kts | 261° |
| 2026-05-07 09:48 | 61.12095 | -146.37976 | 2091 ft | 254 kts | 259° |
| 2026-05-07 09:49 | 61.11712 | -146.41641 | 2748 ft | 265 kts | 257° |
| 2026-05-07 09:49 | 61.11237 | -146.45314 | 3695 ft | 263 kts | 254° |
| 2026-05-07 09:49 | 61.10731 | -146.48877 | 4770 ft | 256 kts | 252° |
| 2026-05-07 09:49 | 61.10241 | -146.52380 | 5740 ft | 254 kts | 252° |
| 2026-05-07 09:50 | 61.09772 | -146.55927 | 6551 ft | 258 kts | 252° |
| 2026-05-07 09:50 | 61.09311 | -146.59540 | 7342 ft | 262 kts | 253° |
| 2026-05-07 09:50 | 61.08847 | -146.63206 | 8133 ft | 265 kts | 252° |
| 2026-05-07 09:50 | 61.08373 | -146.66906 | 8907 ft | 268 kts | 252° |
| 2026-05-07 09:51 | 61.07887 | -146.70646 | 9678 ft | 271 kts | 252° |
| 2026-05-07 09:51 | 61.07392 | -146.74453 | 10252 ft | 283 kts | 252° |
| 2026-05-07 09:51 | 61.07047 | -146.77096 | 10516 ft | 293 kts | 253° |
| 2026-05-07 09:51 | 61.06282 | -146.81170 | 10783 ft | 310 kts | 236° |
| 2026-05-07 09:52 | 61.04802 | -146.84438 | 11294 ft | 316 kts | 214° |
| 2026-05-07 09:52 | 61.02784 | -146.86239 | 12013 ft | 320 kts | 191° |
| 2026-05-07 09:52 | 61.00558 | -146.86190 | 12776 ft | 324 kts | 171° |
| 2026-05-07 09:52 | 60.98329 | -146.85203 | 13482 ft | 330 kts | 168° |
| 2026-05-07 09:53 | 60.96090 | -146.84004 | 14202 ft | 335 kts | 167° |
| 2026-05-07 09:53 | 60.93822 | -146.82744 | 14925 ft | 340 kts | 168° |
| 2026-05-07 09:53 | 60.91517 | -146.81525 | 15648 ft | 344 kts | 169° |
| 2026-05-07 09:53 | 60.89177 | -146.80353 | 16373 ft | 348 kts | 170° |
| 2026-05-07 09:54 | 60.86803 | -146.79189 | 17089 ft | 353 kts | 170° |
| 2026-05-07 09:54 | 60.84406 | -146.78003 | 17823 ft | 357 kts | 170° |
| 2026-05-07 09:54 | 60.81978 | -146.76782 | 18531 ft | 361 kts | 170° |
| 2026-05-07 09:54 | 60.79528 | -146.75543 | 19228 ft | 365 kts | 171° |
| 2026-05-07 09:55 | 60.77048 | -146.74293 | 19912 ft | 369 kts | 171° |
| 2026-05-07 09:55 | 60.74540 | -146.73038 | 20580 ft | 373 kts | 171° |
| 2026-05-07 09:55 | 60.72006 | -146.71777 | 21220 ft | 377 kts | 171° |
| 2026-05-07 09:55 | 60.69447 | -146.70504 | 21857 ft | 380 kts | 171° |
| 2026-05-07 09:56 | 60.66867 | -146.69220 | 22474 ft | 384 kts | 172° |
| 2026-05-07 09:56 | 60.64259 | -146.67923 | 23057 ft | 388 kts | 172° |
| 2026-05-07 09:56 | 60.61627 | -146.66617 | 23629 ft | 391 kts | 172° |
| 2026-05-07 09:56 | 60.58973 | -146.65303 | 24189 ft | 394 kts | 172° |
| 2026-05-07 09:57 | 60.56296 | -146.63980 | 24741 ft | 397 kts | 172° |
| 2026-05-07 09:57 | 60.53621 | -146.62503 | 25384 ft | 400 kts | 166° |
| 2026-05-07 09:57 | 60.51099 | -146.59966 | 25920 ft | 412 kts | 151° |
| 2026-05-07 09:57 | 60.48938 | -146.56093 | 26537 ft | 421 kts | 136° |
| 2026-05-07 09:58 | 60.47318 | -146.51026 | 26926 ft | 438 kts | 118° |
| 2026-05-07 09:58 | 60.46388 | -146.45072 | 27273 ft | 450 kts | 108° |
| 2026-05-07 09:58 | 60.45668 | -146.38842 | 27559 ft | 458 kts | 106° |
| 2026-05-07 09:58 | 60.45015 | -146.32490 | 27901 ft | 463 kts | 105° |
| 2026-05-07 09:59 | 60.44349 | -146.26002 | 28260 ft | 466 kts | 107° |
| 2026-05-07 09:59 | 60.43649 | -146.19652 | 28616 ft | 469 kts | 108° |
| 2026-05-07 09:59 | 60.42885 | -146.13123 | 28976 ft | 472 kts | 108° |
| 2026-05-07 09:59 | 60.42121 | -146.06658 | 29326 ft | 474 kts | 108° |
| 2026-05-07 10:00 | 60.41363 | -146.00126 | 29540 ft | 480 kts | 108° |
| 2026-05-07 10:00 | 60.39839 | -145.86736 | 29734 ft | 494 kts | 108° |
| 2026-05-07 10:00 | 60.39059 | -145.79950 | 29969 ft | 496 kts | 108° |
| 2026-05-07 10:01 | 60.38266 | -145.73158 | 30269 ft | 496 kts | 108° |
| 2026-05-07 10:01 | 60.37466 | -145.66370 | 30582 ft | 496 kts | 108° |
| 2026-05-07 10:01 | 60.36664 | -145.59595 | 30888 ft | 496 kts | 108° |
| 2026-05-07 10:01 | 60.35861 | -145.52815 | 31172 ft | 496 kts | 108° |
| 2026-05-07 10:02 | 60.35059 | -145.46048 | 31465 ft | 495 kts | 108° |
| 2026-05-07 10:02 | 60.34252 | -145.39296 | 31757 ft | 495 kts | 108° |
| 2026-05-07 10:02 | 60.33441 | -145.32558 | 32038 ft | 494 kts | 108° |
| 2026-05-07 10:02 | 60.32627 | -145.25817 | 32316 ft | 493 kts | 107° |
| 2026-05-07 10:03 | 60.31815 | -145.19097 | 32592 ft | 493 kts | 107° |
| 2026-05-07 10:03 | 60.31000 | -145.12396 | 32851 ft | 492 kts | 107° |
| 2026-05-07 10:03 | 60.30181 | -145.05700 | 33106 ft | 491 kts | 107° |
| 2026-05-07 10:03 | 60.29358 | -144.99018 | 33362 ft | 491 kts | 107° |
| 2026-05-07 10:04 | 60.28534 | -144.92346 | 33604 ft | 490 kts | 107° |
| 2026-05-07 10:04 | 60.27707 | -144.85684 | 33833 ft | 490 kts | 107° |
| 2026-05-07 10:04 | 60.26876 | -144.79027 | 34070 ft | 489 kts | 107° |
| 2026-05-07 10:04 | 60.26043 | -144.72383 | 34293 ft | 489 kts | 107° |
| 2026-05-07 10:05 | 60.25211 | -144.65756 | 34515 ft | 488 kts | 107° |
| 2026-05-07 10:05 | 60.24377 | -144.59130 | 34726 ft | 488 kts | 107° |
| 2026-05-07 10:05 | 60.23526 | -144.52421 | 34925 ft | 488 kts | 108° |
| 2026-05-07 10:05 | 60.22684 | -144.45815 | 35126 ft | 487 kts | 108° |
| 2026-05-07 10:06 | 60.21835 | -144.39200 | 35208 ft | 490 kts | 108° |
| 2026-05-07 10:06 | 60.20120 | -144.25900 | 35218 ft | 492 kts | 108° |
| 2026-05-07 10:07 | 60.18396 | -144.12618 | 35218 ft | 490 kts | 108° |
| 2026-05-07 10:07 | 60.16663 | -143.99408 | 35217 ft | 487 kts | 108° |
| 2026-05-07 10:08 | 60.14928 | -143.86298 | 35216 ft | 485 kts | 108° |
| 2026-05-07 10:08 | 60.13186 | -143.73234 | 35217 ft | 485 kts | 108° |
| 2026-05-07 10:09 | 60.11428 | -143.60174 | 35216 ft | 485 kts | 108° |
| 2026-05-07 10:09 | 60.09657 | -143.47115 | 35215 ft | 485 kts | 108° |
| 2026-05-07 10:10 | 60.07872 | -143.34066 | 35215 ft | 486 kts | 109° |
| 2026-05-07 10:10 | 60.06073 | -143.21026 | 35217 ft | 486 kts | 109° |